Record high temperature 35.2°C Record low temperature -28.5°C Record high gust 73.6 km/h Record high average 184.8 km/h Record daily rain 78.0 mm Record low windchill -39.6°C Record high barometer 1045.2 hPa Record low barometer 973.0 hPa
Daily high pressure 1009 hPa Daily low pressure 1008 hPa Daily low windchill 21.2°C Daily high heat index 23.0°C Daily high gust speed 0.0 kmh SSE Daily high average speed 0.0 kmh SSE
Beaconsfield Home Weather Data WMR-968
LAST READING AT TIME: 04:05 DATE: July 30 2015, time of next update: 04:10
Current WeatherNight time/Dry/clear Current Temperature 21.2°C (70.2°F) (Heat Index 21.2°C ), Apparent temp 22.1°C
Maximum Temperature (since midnight)23.0°C at: 00:00 Minimum Temperature (since midnight)21.2°C at: 04:03
Average windspeed (ten minute)0.0 kmh (0.0 kts) Wind Direction (ten minute)S (180°)
Windchill Temperature 21.2°C Maximum Gust (last hour)0.0 kmh (0.0 kts) at: 04:00
Maximum Gust (since midnight)0.0 kmh (0.0 kts) at: 12:12 Maximum 1 minute average (since midnight)0.0 kmh (0.0 kts) at: 13:15
Rainfall (last hour)0.0 mm Rainfall (since midnight)0.0 mm (0.00 in.)---
Rainfall This month 98.4 mm (3.87 in.) Rainfall To date this year 358.4 mm (14.11 in.)
Maximum rain per minute (last hour)0.0 mm/min Maximum rain per hour (last 6 hours)0.0 mm/hour
Yesterdays rainfall 0.0 mm DewPoint 11.8°C (Wet Bulb :15.9°C )
Humidity 55 %, Humidex 23.4°C Barometer corrected to msl1008 hPa
Pressure change 0 hPa (last hour) Trend (last hour)STEADY
Pressure change (last 12 hours)-3 hPa Pressure change (last 6 hours)-2 hPa
Current Indoor Temp. 26.9°C
Current Indoor Hum. 42%
Current 00:00 hours of sunshine today, current sky: Night time/Dry/clear
Sunshine hours for the year: 38:32 hrs Sunshine hours for the month: 20:46 hrs
Current evapotranspiration rate 0.0 mm per day. Yesterday's reading 7.5




Weather report/warning/Metars

Montreal / Pierre Elliot Trudeau International Airport, Que, Canada (CYUL) 45-28N 073-45W 36M
Jul 30, 2015 - 03:00 AM EDT / 2015.07.30 0700 UTC
Wind: Calm:0
Visibility: 15 mile(s):0
Sky conditions: clear
Temperature: 71 F (22 C)
Dew Point: 64 F (18 C)
Relative Humidity: 78%
Pressure (altimeter): 29.79 in. Hg (1008 hPa)
ob: CYUL 300700Z 00000KT 15SM SKC 22/18 A2979 RMK SLP086 DENSITY ALT 1100FT
cycle: 7
Sherbrooke, Que., Canada (CYSC) 45-24N 071-53W
Jul 30, 2015 - 03:30 AM EDT / 2015.07.30 0730 UTC
Wind: Calm:0
Visibility: 6 mile(s):0
Sky conditions: overcast
Weather: thunder in the vicinity; mist
Temperature: 66 F (19 C)
Dew Point: 66 F (19 C)
Relative Humidity: 100%
Pressure (altimeter): 29.85 in. Hg (1010 hPa)
ob: CYSC 300730Z AUTO 00000KT 6SM VCTS BR SCT060 OVC097 19/19 A2985 RMK SLP106 DENSITY ALT 1500FT
cycle: 7
St Jovite Automatic Weather Reporting System , Canada (CWJT) 46-04N 074-32W
Jul 30, 2015 - 03:00 AM EDT / 2015.07.30 0700 UTC
Wind: from the ENE (070 degrees) at 1 MPH (1 KT):0
Temperature: 63.9 F (17.7 C)
Dew Point: 63.7 F (17.6 C)
Relative Humidity: 99%
Pressure tendency: 0.04 inches (1.2 hPa) lower than three hours ago
ob: CWJT 300700Z AUTO 07001KT 18/18 RMK AO1 SLP080 T01770176 57012
cycle: 7
Ste Anne De Bell 1, Canada (CWVQ) 45-26N 073-56W
Jul 30, 2015 - 03:00 AM EDT / 2015.07.30 0700 UTC
Wind: from the S (180 degrees) at 3 MPH (3 KT):0
Temperature: 71.4 F (21.9 C)
Dew Point: 64.0 F (17.8 C)
Relative Humidity: 77%
Pressure tendency: 0.04 inches (1.3 hPa) lower than three hours ago
ob: CWVQ 300700Z AUTO 18003KT 22/18 RMK AO1 SLP085 T02190178 57013
cycle: 7
Montreal / Mirabel, Canada (CYMX) 45-41N 074-02W
Jul 30, 2015 - 03:00 AM EDT / 2015.07.30 0700 UTC
Wind: Calm:0
Visibility: 25 mile(s):0
Sky conditions: mostly clear
Temperature: 66 F (19 C)
Dew Point: 64 F (18 C)
Relative Humidity: 93%
Pressure (altimeter): 29.8 in. Hg (1009 hPa)
ob: CYMX 300700Z 00000KT 25SM FEW230 19/18 A2980 RMK CI1 SLP092 DENSITY ALT 900FT
cycle: 7
L'Acadie, Canada (CWIZ) 45-18N 073-21W
Jul 30, 2015 - 03:00 AM EDT / 2015.07.30 0700 UTC
Wind: from the SSE (160 degrees) at 5 MPH (4 KT):0
Temperature: 69.4 F (20.8 C)
Dew Point: 68.5 F (20.3 C)
Relative Humidity: 96%
ob: CWIZ 300700Z AUTO 16004KT 21/20 RMK AO1 T02080203
cycle: 7
St Anicet, Canada (CWBZ) 45-07N 074-17W 49M
Jul 30, 2015 - 03:00 AM EDT / 2015.07.30 0700 UTC
Wind: from the SSW (200 degrees) at 2 MPH (2 KT):0
Temperature: 66.2 F (19.0 C)
Dew Point: 65.8 F (18.8 C)
Relative Humidity: 98%
Pressure tendency: 0.05 inches (1.6 hPa) lower than three hours ago
ob: CWBZ 300700Z AUTO 20002KT 19/19 RMK AO1 SLP081 T01900188 58016
cycle: 7
Mount Washington, NH, United States (KMWN) 44-16N 071-18W 1910M
Jul 30, 2015 - 03:52 AM EDT / 2015.07.30 0752 UTC
Wind: from the W (270 degrees) at 24 MPH (21 KT):0
Visibility: 1/16 mile(s):0
Sky conditions: obscured
Weather: fog
Temperature: 55 F (13 C)
Dew Point: 55 F (13 C)
Relative Humidity: 100%
ob: KMWN 300752Z 27021KT 1/16SM FG VV001 13/13 RMK 
cycle: 8
Vancouver International Air-Port, B. C., Canada (CYVR) 49-11N 123-10W 2M
Jul 30, 2015 - 03:00 AM EDT / 2015.07.30 0700 UTC
Wind: from the NNW (340 degrees) at 2 MPH (2 KT):0
Visibility: 20 mile(s):0
Sky conditions: clear
Temperature: 66 F (19 C)
Dew Point: 57 F (14 C)
Relative Humidity: 72%
Pressure (altimeter): 30.1 in. Hg (1019 hPa)
ob: CYVR 300700Z 34002KT 20SM SKC 19/14 A3010 RMK SLP192 DENSITY ALT 200FT
cycle: 7



The data is logged at two minute intervals, but there is data recorded every minute.

Use the RELOAD facility on your browser to retrieve the latest data.

Click here for a daily update of the averages/extremes to date for the month

Click here for Real Time Weather



Created by "Weather Display" software version 10.37R Build 51 at this start time/date 22:52 2015-07-24